sensor_id;sensor_type;location;lat;lon;timestamp;pressure;altitude;pressure_sealevel;temperature;humidity
16595;BME280;8410;52.532;13.336;2023-10-13T00:00:27;100959.38;;;17.07;90.06
16595;BME280;8410;52.532;13.336;2023-10-13T00:02:58;100963.34;;;17.40;88.96
16595;BME280;8410;52.532;13.336;2023-10-13T00:05:27;100963.97;;;16.82;88.96
16595;BME280;8410;52.532;13.336;2023-10-13T00:07:57;100953.59;;;16.76;91.56
16595;BME280;8410;52.532;13.336;2023-10-13T00:10:27;100948.13;;;17.04;90.86
16595;BME280;8410;52.532;13.336;2023-10-13T00:12:55;100954.06;;;17.16;88.55
16595;BME280;8410;52.532;13.336;2023-10-13T00:15:32;100941.16;;;17.07;88.98
16595;BME280;8410;52.532;13.336;2023-10-13T00:18:06;100938.38;;;17.21;89.23
16595;BME280;8410;52.532;13.336;2023-10-13T00:20:41;100942.19;;;16.92;90.37
16595;BME280;8410;52.532;13.336;2023-10-13T00:23:16;100941.31;;;16.93;90.30
16595;BME280;8410;52.532;13.336;2023-10-13T00:25:48;100937.53;;;17.22;89.10
16595;BME280;8410;52.532;13.336;2023-10-13T00:28:23;100944.69;;;17.03;89.44
16595;BME280;8410;52.532;13.336;2023-10-13T00:30:54;100945.47;;;17.10;88.96
16595;BME280;8410;52.532;13.336;2023-10-13T00:33:29;100937.44;;;17.28;89.01
16595;BME280;8410;52.532;13.336;2023-10-13T00:35:59;100931.13;;;17.49;88.81
16595;BME280;8410;52.532;13.336;2023-10-13T00:38:27;100927.78;;;17.38;88.82
16595;BME280;8410;52.532;13.336;2023-10-13T00:40:55;100926.75;;;17.50;89.84
16595;BME280;8410;52.532;13.336;2023-10-13T00:43:29;100922.34;;;17.56;88.73
16595;BME280;8410;52.532;13.336;2023-10-13T00:46:04;100923.06;;;17.68;88.53
16595;BME280;8410;52.532;13.336;2023-10-13T00:48:38;100916.16;;;17.65;87.66
16595;BME280;8410;52.532;13.336;2023-10-13T00:51:12;100915.81;;;17.25;86.89
16595;BME280;8410;52.532;13.336;2023-10-13T00:54:00;100918.44;;;17.23;90.72
16595;BME280;8410;52.532;13.336;2023-10-13T00:56:28;100911.06;;;17.56;87.97
16595;BME280;8410;52.532;13.336;2023-10-13T00:58:58;100918.94;;;16.77;91.62
16595;BME280;8410;52.532;13.336;2023-10-13T01:01:29;100913.38;;;17.11;89.20
16595;BME280;8410;52.532;13.336;2023-10-13T01:04:01;100922.66;;;17.33;87.68
16595;BME280;8410;52.532;13.336;2023-10-13T01:06:31;100926.41;;;17.11;89.49
16595;BME280;8410;52.532;13.336;2023-10-13T01:09:00;100919.06;;;17.42;88.56
16595;BME280;8410;52.532;13.336;2023-10-13T01:11:38;100922.25;;;16.93;90.34
16595;BME280;8410;52.532;13.336;2023-10-13T01:14:04;100916.44;;;17.44;88.34
16595;BME280;8410;52.532;13.336;2023-10-13T01:16:32;100913.47;;;17.02;89.87
16595;BME280;8410;52.532;13.336;2023-10-13T01:19:00;100912.38;;;17.24;88.76
16595;BME280;8410;52.532;13.336;2023-10-13T01:21:31;100909.72;;;17.27;88.85
16595;BME280;8410;52.532;13.336;2023-10-13T01:24:01;100915.56;;;17.45;87.11
16595;BME280;8410;52.532;13.336;2023-10-13T01:26:34;100919.94;;;17.39;89.21
16595;BME280;8410;52.532;13.336;2023-10-13T01:29:05;100919.25;;;17.27;88.98
16595;BME280;8410;52.532;13.336;2023-10-13T01:31:39;100922.91;;;17.12;89.86
16595;BME280;8410;52.532;13.336;2023-10-13T01:34:13;100919.91;;;17.42;88.51
16595;BME280;8410;52.532;13.336;2023-10-13T01:36:46;100923.41;;;17.41;88.41
16595;BME280;8410;52.532;13.336;2023-10-13T01:39:14;100921.59;;;17.48;87.68
16595;BME280;8410;52.532;13.336;2023-10-13T01:41:43;100918.25;;;17.38;89.07
16595;BME280;8410;52.532;13.336;2023-10-13T01:44:10;100915.59;;;17.43;88.84
16595;BME280;8410;52.532;13.336;2023-10-13T01:46:38;100916.13;;;16.97;91.01
16595;BME280;8410;52.532;13.336;2023-10-13T01:49:08;100925.34;;;17.27;90.95
16595;BME280;8410;52.532;13.336;2023-10-13T01:51:35;100918.06;;;17.51;89.01
16595;BME280;8410;52.532;13.336;2023-10-13T01:54:06;100908.25;;;17.71;87.79
16595;BME280;8410;52.532;13.336;2023-10-13T01:56:39;100913.31;;;17.17;90.94
16595;BME280;8410;52.532;13.336;2023-10-13T01:59:09;100917.16;;;17.56;89.02
16595;BME280;8410;52.532;13.336;2023-10-13T02:01:36;100912.66;;;17.66;88.80
16595;BME280;8410;52.532;13.336;2023-10-13T02:04:04;100911.97;;;17.53;89.13
16595;BME280;8410;52.532;13.336;2023-10-13T02:06:32;100910.16;;;17.60;88.72
16595;BME280;8410;52.532;13.336;2023-10-13T02:09:00;100909.34;;;17.55;88.93
16595;BME280;8410;52.532;13.336;2023-10-13T02:11:39;100907.03;;;17.35;89.65
16595;BME280;8410;52.532;13.336;2023-10-13T02:14:06;100888.69;;;17.42;88.80
16595;BME280;8410;52.532;13.336;2023-10-13T02:16:37;100879.81;;;17.56;88.45
16595;BME280;8410;52.532;13.336;2023-10-13T02:19:04;100880.44;;;17.10;89.02
16595;BME280;8410;52.532;13.336;2023-10-13T02:21:32;100878.44;;;16.51;92.33
16595;BME280;8410;52.532;13.336;2023-10-13T02:23:58;100871.38;;;16.66;92.88
16595;BME280;8410;52.532;13.336;2023-10-13T02:26:31;100866.63;;;17.05;92.34
16595;BME280;8410;52.532;13.336;2023-10-13T02:29:00;100876.47;;;17.48;90.71
16595;BME280;8410;52.532;13.336;2023-10-13T02:31:30;100874.66;;;17.53;90.24
16595;BME280;8410;52.532;13.336;2023-10-13T02:33:57;100877.19;;;17.59;90.18
16595;BME280;8410;52.532;13.336;2023-10-13T02:36:26;100872.59;;;17.14;92.46
16595;BME280;8410;52.532;13.336;2023-10-13T02:39:03;100860.19;;;17.33;92.30
16595;BME280;8410;52.532;13.336;2023-10-13T02:41:35;100864.44;;;17.40;90.74
16595;BME280;8410;52.532;13.336;2023-10-13T02:44:05;100863.44;;;17.49;90.38
16595;BME280;8410;52.532;13.336;2023-10-13T02:46:34;100859.03;;;17.54;91.16
16595;BME280;8410;52.532;13.336;2023-10-13T02:49:02;100857.06;;;17.70;90.51
16595;BME280;8410;52.532;13.336;2023-10-13T02:51:36;100861.09;;;17.29;91.74
16595;BME280;8410;52.532;13.336;2023-10-13T02:54:04;100852.09;;;17.55;90.31
16595;BME280;8410;52.532;13.336;2023-10-13T02:56:37;100849.53;;;17.50;91.09
16595;BME280;8410;52.532;13.336;2023-10-13T02:59:05;100847.50;;;17.72;90.91
16595;BME280;8410;52.532;13.336;2023-10-13T03:01:33;100845.34;;;17.41;90.77
16595;BME280;8410;52.532;13.336;2023-10-13T03:04:02;100835.72;;;17.48;90.95
16595;BME280;8410;52.532;13.336;2023-10-13T03:06:30;100834.81;;;17.48;90.73
16595;BME280;8410;52.532;13.336;2023-10-13T03:09:00;100839.69;;;17.72;90.63
16595;BME280;8410;52.532;13.336;2023-10-13T03:11:40;100832.09;;;17.57;91.02
16595;BME280;8410;52.532;13.336;2023-10-13T03:14:15;100827.75;;;17.56;90.81
16595;BME280;8410;52.532;13.336;2023-10-13T03:16:53;100828.38;;;17.72;90.01
16595;BME280;8410;52.532;13.336;2023-10-13T03:19:20;100821.38;;;17.77;89.51
16595;BME280;8410;52.532;13.336;2023-10-13T03:21:49;100822.22;;;17.80;90.02
16595;BME280;8410;52.532;13.336;2023-10-13T03:24:21;100816.97;;;17.83;89.32
16595;BME280;8410;52.532;13.336;2023-10-13T03:27:00;100812.66;;;17.81;89.81
16595;BME280;8410;52.532;13.336;2023-10-13T03:29:36;100811.13;;;17.66;90.39
16595;BME280;8410;52.532;13.336;2023-10-13T03:32:05;100805.91;;;17.66;90.48
16595;BME280;8410;52.532;13.336;2023-10-13T03:34:38;100797.97;;;17.75;90.35
16595;BME280;8410;52.532;13.336;2023-10-13T03:37:16;100795.44;;;17.71;90.43
16595;BME280;8410;52.532;13.336;2023-10-13T03:39:45;100779.19;;;17.55;90.62
16595;BME280;8410;52.532;13.336;2023-10-13T03:42:13;100767.22;;;17.45;92.91
16595;BME280;8410;52.532;13.336;2023-10-13T03:44:46;100770.69;;;17.44;92.16
16595;BME280;8410;52.532;13.336;2023-10-13T03:47:14;100772.91;;;17.67;90.83
16595;BME280;8410;52.532;13.336;2023-10-13T03:49:53;100777.16;;;17.75;90.50
16595;BME280;8410;52.532;13.336;2023-10-13T03:52:41;100767.66;;;17.71;90.15
16595;BME280;8410;52.532;13.336;2023-10-13T03:55:09;100776.59;;;17.56;91.83
16595;BME280;8410;52.532;13.336;2023-10-13T03:57:44;100766.81;;;17.69;90.79
16595;BME280;8410;52.532;13.336;2023-10-13T04:00:15;100767.75;;;17.65;91.41
16595;BME280;8410;52.532;13.336;2023-10-13T04:02:49;100758.00;;;17.79;90.73
16595;BME280;8410;52.532;13.336;2023-10-13T04:05:20;100754.19;;;17.46;91.14
16595;BME280;8410;52.532;13.336;2023-10-13T04:08:03;100761.03;;;17.52;91.66
16595;BME280;8410;52.532;13.336;2023-10-13T04:10:52;100771.72;;;17.32;93.47
16595;BME280;8410;52.532;13.336;2023-10-13T04:13:37;100768.50;;;17.73;91.89
16595;BME280;8410;52.532;13.336;2023-10-13T04:16:23;100768.50;;;17.73;91.35
16595;BME280;8410;52.532;13.336;2023-10-13T04:19:17;100771.09;;;17.73;91.42
16595;BME280;8410;52.532;13.336;2023-10-13T04:21:51;100760.63;;;17.75;91.38
16595;BME280;8410;52.532;13.336;2023-10-13T04:24:26;100755.16;;;17.40;90.99
16595;BME280;8410;52.532;13.336;2023-10-13T04:27:20;100752.03;;;17.17;93.45
16595;BME280;8410;52.532;13.336;2023-10-13T04:30:08;100750.75;;;17.42;93.50
16595;BME280;8410;52.532;13.336;2023-10-13T04:32:47;100734.75;;;17.67;92.02
16595;BME280;8410;52.532;13.336;2023-10-13T04:35:32;100730.53;;;17.04;95.13
16595;BME280;8410;52.532;13.336;2023-10-13T04:38:14;100733.00;;;17.12;94.42
16595;BME280;8410;52.532;13.336;2023-10-13T04:40:46;100732.41;;;17.52;93.22
16595;BME280;8410;52.532;13.336;2023-10-13T04:43:27;100728.81;;;17.59;93.02
16595;BME280;8410;52.532;13.336;2023-10-13T04:46:20;100723.56;;;17.06;95.27
16595;BME280;8410;52.532;13.336;2023-10-13T04:49:03;100719.63;;;17.38;94.31
16595;BME280;8410;52.532;13.336;2023-10-13T04:51:53;100721.75;;;17.67;92.82
16595;BME280;8410;52.532;13.336;2023-10-13T04:54:26;100722.00;;;17.50;91.67
16595;BME280;8410;52.532;13.336;2023-10-13T04:56:52;100720.03;;;17.64;93.74
16595;BME280;8410;52.532;13.336;2023-10-13T04:59:40;100717.63;;;16.96;95.33
16595;BME280;8410;52.532;13.336;2023-10-13T05:02:22;100726.53;;;17.39;94.99
16595;BME280;8410;52.532;13.336;2023-10-13T05:05:09;100712.78;;;17.29;96.05
16595;BME280;8410;52.532;13.336;2023-10-13T05:08:09;100725.91;;;17.76;93.45
16595;BME280;8410;52.532;13.336;2023-10-13T05:10:54;100722.38;;;17.80;93.57
16595;BME280;8410;52.532;13.336;2023-10-13T05:13:39;100708.44;;;17.85;92.90
16595;BME280;8410;52.532;13.336;2023-10-13T05:16:24;100709.38;;;17.78;92.95
16595;BME280;8410;52.532;13.336;2023-10-13T05:19:09;100701.69;;;17.72;93.85
16595;BME280;8410;52.532;13.336;2023-10-13T05:21:55;100714.69;;;17.19;96.38
16595;BME280;8410;52.532;13.336;2023-10-13T05:24:41;100706.31;;;17.55;94.89
16595;BME280;8410;52.532;13.336;2023-10-13T05:27:26;100701.59;;;17.77;93.99
16595;BME280;8410;52.532;13.336;2023-10-13T05:30:12;100704.97;;;17.29;96.79
16595;BME280;8410;52.532;13.336;2023-10-13T05:32:57;100698.09;;;17.81;94.00
16595;BME280;8410;52.532;13.336;2023-10-13T05:35:42;100700.72;;;17.76;94.97
16595;BME280;8410;52.532;13.336;2023-10-13T05:38:31;100698.66;;;17.97;93.16
16595;BME280;8410;52.532;13.336;2023-10-13T05:41:16;100699.91;;;17.74;94.63
16595;BME280;8410;52.532;13.336;2023-10-13T05:44:01;100707.34;;;17.96;93.08
16595;BME280;8410;52.532;13.336;2023-10-13T05:46:46;100698.03;;;17.84;94.02
16595;BME280;8410;52.532;13.336;2023-10-13T05:49:28;100703.41;;;17.72;94.96
16595;BME280;8410;52.532;13.336;2023-10-13T05:52:13;100697.72;;;18.01;92.66
16595;BME280;8410;52.532;13.336;2023-10-13T05:55:08;100700.09;;;18.13;92.65
16595;BME280;8410;52.532;13.336;2023-10-13T05:57:53;100693.25;;;18.07;93.17
16595;BME280;8410;52.532;13.336;2023-10-13T06:00:39;100686.06;;;18.20;92.37
16595;BME280;8410;52.532;13.336;2023-10-13T06:03:24;100685.03;;;18.27;92.57
16595;BME280;8410;52.532;13.336;2023-10-13T06:06:10;100690.25;;;18.27;92.71
16595;BME280;8410;52.532;13.336;2023-10-13T06:08:55;100688.28;;;18.39;92.29
16595;BME280;8410;52.532;13.336;2023-10-13T06:11:41;100673.66;;;18.32;92.07
16595;BME280;8410;52.532;13.336;2023-10-13T06:14:27;100673.78;;;18.25;92.42
16595;BME280;8410;52.532;13.336;2023-10-13T06:17:11;100672.06;;;18.26;93.15
16595;BME280;8410;52.532;13.336;2023-10-13T06:19:57;100666.53;;;18.40;92.81
16595;BME280;8410;52.532;13.336;2023-10-13T06:22:42;100666.16;;;18.58;91.36
16595;BME280;8410;52.532;13.336;2023-10-13T06:25:27;100665.16;;;18.64;91.48
16595;BME280;8410;52.532;13.336;2023-10-13T06:28:13;100672.22;;;18.59;91.68
16595;BME280;8410;52.532;13.336;2023-10-13T06:30:59;100661.94;;;18.52;91.42
16595;BME280;8410;52.532;13.336;2023-10-13T06:33:28;100666.09;;;18.61;92.37
16595;BME280;8410;52.532;13.336;2023-10-13T06:36:01;100671.38;;;18.57;91.96
16595;BME280;8410;52.532;13.336;2023-10-13T06:38:29;100667.94;;;18.56;91.49
16595;BME280;8410;52.532;13.336;2023-10-13T06:41:02;100665.88;;;17.87;93.12
16595;BME280;8410;52.532;13.336;2023-10-13T06:43:33;100671.81;;;18.37;93.42
16595;BME280;8410;52.532;13.336;2023-10-13T06:46:06;100668.47;;;18.30;92.88
16595;BME280;8410;52.532;13.336;2023-10-13T06:48:41;100674.44;;;17.92;95.21
16595;BME280;8410;52.532;13.336;2023-10-13T06:51:10;100672.84;;;17.84;97.46
16595;BME280;8410;52.532;13.336;2023-10-13T06:53:44;100665.00;;;18.31;94.16
16595;BME280;8410;52.532;13.336;2023-10-13T06:56:13;100652.66;;;17.96;96.25
16595;BME280;8410;52.532;13.336;2023-10-13T06:58:45;100661.22;;;18.02;95.76
16595;BME280;8410;52.532;13.336;2023-10-13T07:01:13;100661.06;;;18.52;93.21
16595;BME280;8410;52.532;13.336;2023-10-13T07:03:48;100660.28;;;18.48;93.06
16595;BME280;8410;52.532;13.336;2023-10-13T07:06:20;100655.44;;;18.70;93.80
16595;BME280;8410;52.532;13.336;2023-10-13T07:08:48;100656.19;;;18.37;93.43
16595;BME280;8410;52.532;13.336;2023-10-13T07:11:24;100661.63;;;18.66;93.97
16595;BME280;8410;52.532;13.336;2023-10-13T07:14:02;100654.63;;;18.68;92.96
16595;BME280;8410;52.532;13.336;2023-10-13T07:16:43;100656.63;;;18.96;92.58
16595;BME280;8410;52.532;13.336;2023-10-13T07:19:13;100663.44;;;19.03;93.01
16595;BME280;8410;52.532;13.336;2023-10-13T07:21:46;100659.59;;;18.39;93.40
16595;BME280;8410;52.532;13.336;2023-10-13T07:24:14;100652.53;;;18.84;94.28
16595;BME280;8410;52.532;13.336;2023-10-13T07:26:42;100656.06;;;18.43;95.01
16595;BME280;8410;52.532;13.336;2023-10-13T07:29:13;100652.06;;;18.65;95.00
16595;BME280;8410;52.532;13.336;2023-10-13T07:31:41;100654.16;;;19.26;91.97
16595;BME280;8410;52.532;13.336;2023-10-13T07:34:12;100638.25;;;19.35;91.12
16595;BME280;8410;52.532;13.336;2023-10-13T07:36:52;100644.84;;;19.51;90.66
16595;BME280;8410;52.532;13.336;2023-10-13T07:39:26;100635.66;;;19.35;92.15
16595;BME280;8410;52.532;13.336;2023-10-13T07:41:55;100634.25;;;19.56;91.25
16595;BME280;8410;52.532;13.336;2023-10-13T07:44:32;100634.03;;;19.64;90.81
16595;BME280;8410;52.532;13.336;2023-10-13T07:47:00;100622.59;;;19.69;90.19
16595;BME280;8410;52.532;13.336;2023-10-13T07:49:32;100633.91;;;19.70;90.34
16595;BME280;8410;52.532;13.336;2023-10-13T07:52:05;100636.47;;;19.73;89.73
16595;BME280;8410;52.532;13.336;2023-10-13T07:54:55;100630.41;;;19.71;90.64
16595;BME280;8410;52.532;13.336;2023-10-13T07:57:39;100623.75;;;19.25;91.78
16595;BME280;8410;52.532;13.336;2023-10-13T08:00:22;100625.56;;;19.55;90.87
16595;BME280;8410;52.532;13.336;2023-10-13T08:02:57;100626.59;;;19.50;93.01
16595;BME280;8410;52.532;13.336;2023-10-13T08:05:35;100628.59;;;19.04;91.99
16595;BME280;8410;52.532;13.336;2023-10-13T08:08:22;100621.44;;;19.12;93.60
16595;BME280;8410;52.532;13.336;2023-10-13T08:10:52;100612.91;;;19.40;91.72
16595;BME280;8410;52.532;13.336;2023-10-13T08:13:22;100604.88;;;19.13;94.23
16595;BME280;8410;52.532;13.336;2023-10-13T08:15:51;100610.28;;;19.40;92.78
16595;BME280;8410;52.532;13.336;2023-10-13T08:18:19;100614.94;;;19.61;90.64
16595;BME280;8410;52.532;13.336;2023-10-13T08:20:57;100610.06;;;19.49;93.01
16595;BME280;8410;52.532;13.336;2023-10-13T08:23:30;100600.53;;;19.81;91.55
16595;BME280;8410;52.532;13.336;2023-10-13T08:26:18;100594.50;;;19.46;92.96
16595;BME280;8410;52.532;13.336;2023-10-13T08:29:18;100598.50;;;19.58;89.88
16595;BME280;8410;52.532;13.336;2023-10-13T08:32:05;100584.63;;;19.56;93.44
16595;BME280;8410;52.532;13.336;2023-10-13T08:34:48;100596.84;;;19.55;92.27
16595;BME280;8410;52.532;13.336;2023-10-13T08:37:36;100593.66;;;19.77;91.85
16595;BME280;8410;52.532;13.336;2023-10-13T08:40:44;100599.44;;;19.23;92.95
16595;BME280;8410;52.532;13.336;2023-10-13T08:44:03;100586.88;;;19.37;94.45
16595;BME280;8410;52.532;13.336;2023-10-13T08:46:31;100575.19;;;19.85;91.04
16595;BME280;8410;52.532;13.336;2023-10-13T08:49:20;100572.09;;;19.70;91.33
16595;BME280;8410;52.532;13.336;2023-10-13T08:51:50;100564.94;;;19.44;92.86
16595;BME280;8410;52.532;13.336;2023-10-13T08:54:33;100569.13;;;19.82;91.74
16595;BME280;8410;52.532;13.336;2023-10-13T08:57:05;100569.00;;;19.87;90.38
16595;BME280;8410;52.532;13.336;2023-10-13T09:00:00;100562.41;;;19.74;90.54
16595;BME280;8410;52.532;13.336;2023-10-13T09:02:41;100566.66;;;19.45;92.05
16595;BME280;8410;52.532;13.336;2023-10-13T09:05:50;100568.13;;;19.23;95.39
16595;BME280;8410;52.532;13.336;2023-10-13T09:08:28;100563.03;;;19.18;93.23
16595;BME280;8410;52.532;13.336;2023-10-13T09:11:11;100553.53;;;19.81;91.73
16595;BME280;8410;52.532;13.336;2023-10-13T09:13:39;100560.78;;;19.70;92.91
16595;BME280;8410;52.532;13.336;2023-10-13T09:16:14;100553.94;;;19.97;91.42
16595;BME280;8410;52.532;13.336;2023-10-13T09:18:49;100558.41;;;20.21;90.03
16595;BME280;8410;52.532;13.336;2023-10-13T09:21:20;100556.66;;;20.22;89.70
16595;BME280;8410;52.532;13.336;2023-10-13T09:24:10;100558.06;;;19.09;94.10
16595;BME280;8410;52.532;13.336;2023-10-13T09:26:53;100537.69;;;19.54;92.91
16595;BME280;8410;52.532;13.336;2023-10-13T09:29:23;100535.81;;;19.27;94.35
16595;BME280;8410;52.532;13.336;2023-10-13T09:32:00;100520.81;;;19.68;92.89
16595;BME280;8410;52.532;13.336;2023-10-13T09:34:27;100528.66;;;19.97;92.87
16595;BME280;8410;52.532;13.336;2023-10-13T09:37:00;100521.13;;;20.15;90.85
16595;BME280;8410;52.532;13.336;2023-10-13T09:39:29;100516.56;;;19.93;91.29
16595;BME280;8410;52.532;13.336;2023-10-13T09:42:01;100515.66;;;20.24;92.08
16595;BME280;8410;52.532;13.336;2023-10-13T09:44:29;100504.59;;;19.86;92.58
16595;BME280;8410;52.532;13.336;2023-10-13T09:47:01;100495.56;;;19.96;94.56
16595;BME280;8410;52.532;13.336;2023-10-13T09:49:39;100496.44;;;20.25;91.87
16595;BME280;8410;52.532;13.336;2023-10-13T09:52:18;100492.16;;;19.65;92.78
16595;BME280;8410;52.532;13.336;2023-10-13T09:54:53;100489.16;;;19.47;96.05
16595;BME280;8410;52.532;13.336;2023-10-13T09:57:29;100477.44;;;19.92;94.37
16595;BME280;8410;52.532;13.336;2023-10-13T10:00:06;100475.59;;;19.64;93.31
16595;BME280;8410;52.532;13.336;2023-10-13T10:02:54;100473.44;;;19.80;94.12
16595;BME280;8410;52.532;13.336;2023-10-13T10:05:25;100466.53;;;19.77;93.41
16595;BME280;8410;52.532;13.336;2023-10-13T10:07:57;100469.50;;;19.65;95.66
16595;BME280;8410;52.532;13.336;2023-10-13T10:10:32;100472.06;;;19.96;94.98
16595;BME280;8410;52.532;13.336;2023-10-13T10:13:15;100463.78;;;20.38;92.21
16595;BME280;8410;52.532;13.336;2023-10-13T10:15:51;100463.94;;;20.05;93.38
16595;BME280;8410;52.532;13.336;2023-10-13T10:18:23;100458.88;;;19.71;94.38
16595;BME280;8410;52.532;13.336;2023-10-13T10:21:03;100456.75;;;19.54;97.82
16595;BME280;8410;52.532;13.336;2023-10-13T10:23:35;100453.25;;;19.85;96.41
16595;BME280;8410;52.532;13.336;2023-10-13T10:26:12;100453.69;;;19.99;95.48
16595;BME280;8410;52.532;13.336;2023-10-13T10:28:42;100448.63;;;19.93;95.24
16595;BME280;8410;52.532;13.336;2023-10-13T10:31:11;100453.94;;;19.92;94.79
16595;BME280;8410;52.532;13.336;2023-10-13T10:33:40;100462.09;;;19.50;96.91
16595;BME280;8410;52.532;13.336;2023-10-13T10:36:09;100450.75;;;19.51;96.21
16595;BME280;8410;52.532;13.336;2023-10-13T10:38:54;100454.03;;;19.28;99.08
16595;BME280;8410;52.532;13.336;2023-10-13T10:41:26;100454.38;;;19.47;99.30
16595;BME280;8410;52.532;13.336;2023-10-13T10:44:09;100440.16;;;19.57;99.54
16595;BME280;8410;52.532;13.336;2023-10-13T10:46:41;100424.78;;;19.16;100.00
16595;BME280;8410;52.532;13.336;2023-10-13T10:49:18;100421.47;;;19.71;98.93
16595;BME280;8410;52.532;13.336;2023-10-13T10:51:57;100429.72;;;19.85;97.97
16595;BME280;8410;52.532;13.336;2023-10-13T10:54:28;100417.13;;;19.40;100.00
16595;BME280;8410;52.532;13.336;2023-10-13T10:56:58;100419.28;;;19.55;100.00
16595;BME280;8410;52.532;13.336;2023-10-13T10:59:37;100414.25;;;19.79;100.00
16595;BME280;8410;52.532;13.336;2023-10-13T11:02:06;100405.03;;;19.67;99.28
16595;BME280;8410;52.532;13.336;2023-10-13T11:04:35;100392.78;;;19.97;99.23
16595;BME280;8410;52.532;13.336;2023-10-13T11:07:07;100395.88;;;19.52;100.00
16595;BME280;8410;52.532;13.336;2023-10-13T11:09:37;100393.88;;;19.62;100.00
16595;BME280;8410;52.532;13.336;2023-10-13T11:12:13;100387.41;;;19.75;100.00
16595;BME280;8410;52.532;13.336;2023-10-13T11:15:00;100391.75;;;19.45;100.00
16595;BME280;8410;52.532;13.336;2023-10-13T11:17:28;100378.44;;;19.54;100.00
16595;BME280;8410;52.532;13.336;2023-10-13T11:20:09;100390.03;;;19.74;100.00
16595;BME280;8410;52.532;13.336;2023-10-13T11:22:46;100379.69;;;19.71;100.00
16595;BME280;8410;52.532;13.336;2023-10-13T11:25:23;100366.63;;;19.41;100.00
16595;BME280;8410;52.532;13.336;2023-10-13T11:27:57;100378.69;;;19.75;100.00
16595;BME280;8410;52.532;13.336;2023-10-13T11:30:27;100379.16;;;20.14;98.54
16595;BME280;8410;52.532;13.336;2023-10-13T11:33:08;100363.94;;;20.27;99.52
16595;BME280;8410;52.532;13.336;2023-10-13T11:35:37;100365.72;;;20.00;100.00
16595;BME280;8410;52.532;13.336;2023-10-13T11:38:23;100357.63;;;20.08;100.00
16595;BME280;8410;52.532;13.336;2023-10-13T11:40:58;100348.25;;;20.00;100.00
16595;BME280;8410;52.532;13.336;2023-10-13T11:43:50;100334.75;;;20.14;99.62
16595;BME280;8410;52.532;13.336;2023-10-13T11:46:33;100341.06;;;20.07;99.57
16595;BME280;8410;52.532;13.336;2023-10-13T11:49:27;100332.88;;;20.18;100.00
16595;BME280;8410;52.532;13.336;2023-10-13T11:52:03;100336.72;;;20.33;98.06
16595;BME280;8410;52.532;13.336;2023-10-13T11:54:43;100332.13;;;20.39;98.77
16595;BME280;8410;52.532;13.336;2023-10-13T11:57:15;100323.81;;;20.28;98.88
16595;BME280;8410;52.532;13.336;2023-10-13T11:59:47;100318.34;;;20.09;99.28
16595;BME280;8410;52.532;13.336;2023-10-13T12:02:23;100316.44;;;20.39;100.00
16595;BME280;8410;52.532;13.336;2023-10-13T12:05:08;100301.19;;;20.77;96.99
16595;BME280;8410;52.532;13.336;2023-10-13T12:07:39;100294.91;;;20.58;98.80
16595;BME280;8410;52.532;13.336;2023-10-13T12:10:14;100294.91;;;20.81;95.90
16595;BME280;8410;52.532;13.336;2023-10-13T12:12:44;100289.53;;;20.86;96.20
16595;BME280;8410;52.532;13.336;2023-10-13T12:15:14;100296.25;;;20.69;96.28
16595;BME280;8410;52.532;13.336;2023-10-13T12:17:52;100295.72;;;20.83;95.83
16595;BME280;8410;52.532;13.336;2023-10-13T12:20:26;100281.97;;;20.78;95.08
16595;BME280;8410;52.532;13.336;2023-10-13T12:23:00;100282.31;;;20.69;97.71
16595;BME280;8410;52.532;13.336;2023-10-13T12:25:37;100279.91;;;20.86;96.04
16595;BME280;8410;52.532;13.336;2023-10-13T12:28:24;100275.25;;;20.46;98.25
16595;BME280;8410;52.532;13.336;2023-10-13T12:30:54;100275.19;;;20.96;95.62
16595;BME280;8410;52.532;13.336;2023-10-13T12:33:24;100275.59;;;20.62;97.47
16595;BME280;8410;52.532;13.336;2023-10-13T12:35:57;100260.69;;;20.87;95.75
16595;BME280;8410;52.532;13.336;2023-10-13T12:38:34;100263.75;;;20.99;94.97
16595;BME280;8410;52.532;13.336;2023-10-13T12:41:06;100257.50;;;20.79;95.85
16595;BME280;8410;52.532;13.336;2023-10-13T12:44:03;100254.31;;;21.17;93.67
16595;BME280;8410;52.532;13.336;2023-10-13T12:46:49;100244.63;;;20.97;95.76
16595;BME280;8410;52.532;13.336;2023-10-13T12:49:46;100247.38;;;20.93;95.90
16595;BME280;8410;52.532;13.336;2023-10-13T12:52:18;100248.97;;;20.74;96.57
16595;BME280;8410;52.532;13.336;2023-10-13T12:54:47;100238.28;;;20.80;95.81
16595;BME280;8410;52.532;13.336;2023-10-13T12:57:25;100228.38;;;21.32;93.98
16595;BME280;8410;52.532;13.336;2023-10-13T12:59:55;100218.72;;;21.56;92.61
16595;BME280;8410;52.532;13.336;2023-10-13T13:02:23;100206.63;;;21.10;92.85
16595;BME280;8410;52.532;13.336;2023-10-13T13:04:53;100200.25;;;21.39;93.00
16595;BME280;8410;52.532;13.336;2023-10-13T13:07:23;100193.63;;;21.51;93.00
16595;BME280;8410;52.532;13.336;2023-10-13T13:09:56;100201.72;;;21.01;94.32
16595;BME280;8410;52.532;13.336;2023-10-13T13:12:26;100199.72;;;21.29;94.29
16595;BME280;8410;52.532;13.336;2023-10-13T13:14:56;100192.66;;;21.31;92.64
16595;BME280;8410;52.532;13.336;2023-10-13T13:17:24;100184.22;;;21.67;92.58
16595;BME280;8410;52.532;13.336;2023-10-13T13:19:51;100182.38;;;21.69;92.03
16595;BME280;8410;52.532;13.336;2023-10-13T13:22:20;100183.03;;;21.54;91.85
16595;BME280;8410;52.532;13.336;2023-10-13T13:24:47;100177.19;;;21.47;92.38
16595;BME280;8410;52.532;13.336;2023-10-13T13:27:16;100176.03;;;21.54;91.79
16595;BME280;8410;52.532;13.336;2023-10-13T13:29:48;100170.47;;;21.83;91.07
16595;BME280;8410;52.532;13.336;2023-10-13T13:32:17;100164.75;;;21.73;90.30
16595;BME280;8410;52.532;13.336;2023-10-13T13:34:45;100168.34;;;21.91;89.55